Time;durP1;ratioP1;P1;durP2;ratioP2;P2;SDS_P1;SDS_P2;PMS_P1;PMS_P2;Temp;Humidity;BMP_temperature;BMP_pressure;BME280_temperature;BME280_humidity;BME280_pressure;Samples;Min_cycle;Max_cycle;Signal;HPM_P1;HPM_P2
2022/06/08 00:00:18;;;;;;;0.80;0.80;;;21.60;69.10;;;;;;5088170;27;43929;-68
2022/06/08 00:02:49;;;;;;;0.80;0.80;;;21.50;69.00;;;;;;5088110;27;43373;-68
2022/06/08 00:05:17;;;;;;;0.80;0.80;;;21.50;69.80;;;;;;5087392;27;45139;-68
2022/06/08 00:07:45;;;;;;;0.67;0.67;;;21.60;69.90;;;;;;5069347;27;44452;-69
2022/06/08 00:10:13;;;;;;;0.77;0.77;;;21.70;69.50;;;;;;5087838;27;43943;-68
2022/06/08 00:12:41;;;;;;;0.70;0.70;;;21.90;69.10;;;;;;5088251;27;43998;-69
2022/06/08 00:15:10;;;;;;;0.80;0.80;;;22.10;68.50;;;;;;5087763;27;44017;-68
2022/06/08 00:17:39;;;;;;;0.97;0.97;;;22.20;68.00;;;;;;5087776;27;43383;-68
2022/06/08 00:20:10;;;;;;;0.73;0.73;;;22.40;67.40;;;;;;5091795;27;43892;-68
2022/06/08 00:22:38;;;;;;;0.77;0.77;;;22.60;66.90;;;;;;5107916;27;43305;-68
2022/06/08 00:25:07;;;;;;;0.80;0.80;;;22.70;66.50;;;;;;5107432;27;44076;-69
2022/06/08 00:27:35;;;;;;;0.70;0.70;;;22.80;66.00;;;;;;5107496;27;44058;-68
2022/06/08 00:30:03;;;;;;;0.63;0.63;;;22.90;65.70;;;;;;5107401;27;43802;-69
2022/06/08 00:32:32;;;;;;;0.77;0.70;;;23.00;65.30;;;;;;5088756;27;43967;-70
2022/06/08 00:35:01;;;;;;;0.73;0.73;;;23.10;65.20;;;;;;5088400;27;43971;-69
2022/06/08 00:37:30;;;;;;;0.80;0.80;;;23.10;64.90;;;;;;5106860;27;44063;-68
2022/06/08 00:40:00;;;;;;;0.70;0.70;;;23.10;64.90;;;;;;5088562;27;43345;-69
2022/06/08 00:42:28;;;;;;;0.70;0.70;;;23.00;65.00;;;;;;5088623;27;43411;-69
2022/06/08 00:45:00;;;;;;;0.90;0.90;;;22.90;65.50;;;;;;5106755;27;43951;-68
2022/06/08 00:47:31;;;;;;;0.87;0.87;;;22.70;66.10;;;;;;5087852;27;46182;-68
2022/06/08 00:50:03;;;;;;;0.80;0.80;;;22.40;66.40;;;;;;5088485;27;43999;-69
2022/06/08 00:52:33;;;;;;;0.67;0.67;;;22.20;66.80;;;;;;5075753;28;43944;-68
2022/06/08 00:55:03;;;;;;;0.67;0.67;;;22.10;67.30;;;;;;5086730;28;43950;-69
2022/06/08 00:57:32;;;;;;;0.77;0.77;;;22.00;67.70;;;;;;5086819;27;43986;-68
2022/06/08 01:00:06;;;;;;;0.80;0.80;;;21.90;68.00;;;;;;5087287;27;43925;-69
2022/06/08 01:02:36;;;;;;;0.80;0.80;;;21.80;68.30;;;;;;5069097;27;44044;-68
2022/06/08 01:05:22;;;;;;;0.90;0.90;;;21.70;68.40;;;;;;5087054;27;44679;-68
2022/06/08 01:07:55;;;;;;;0.90;0.90;;;21.60;68.60;;;;;;5069955;28;44677;-69
2022/06/08 01:10:28;;;;;;;0.97;0.97;;;21.60;68.80;;;;;;5072192;28;43956;-68
2022/06/08 01:13:01;;;;;;;0.83;0.83;;;21.60;68.90;;;;;;5091093;27;44023;-68
2022/06/08 01:15:29;;;;;;;0.80;0.80;;;21.60;69.00;;;;;;5071975;28;44037;-68
2022/06/08 01:18:01;;;;;;;0.80;0.80;;;21.50;69.00;;;;;;5071511;28;45561;-69
2022/06/08 01:20:29;;;;;;;0.80;0.80;;;21.50;69.10;;;;;;5085296;27;43994;-69
2022/06/08 01:22:58;;;;;;;0.93;0.93;;;21.50;69.10;;;;;;5090688;28;43951;-69
2022/06/08 01:25:26;;;;;;;0.70;0.70;;;21.50;69.10;;;;;;5090275;27;45105;-68
2022/06/08 01:28:08;;;;;;;0.73;0.73;;;21.50;69.20;;;;;;5071958;27;44715;-68
2022/06/08 01:30:44;;;;;;;1.07;1.07;;;21.50;69.30;;;;;;5090602;27;44028;-69
2022/06/08 01:33:42;;;;;;;0.80;0.80;;;21.50;70.10;;;;;;5090732;27;44014;-68
2022/06/08 01:36:30;;;;;;;0.90;0.90;;;21.70;69.60;;;;;;5073458;27;45677;-69
2022/06/08 01:39:03;;;;;;;0.70;0.70;;;21.90;69.00;;;;;;5110200;27;43946;-68
2022/06/08 01:41:42;;;;;;;0.80;0.80;;;22.10;68.30;;;;;;5109820;27;44014;-69
2022/06/08 01:44:14;;;;;;;0.77;0.77;;;22.30;67.70;;;;;;5110301;27;43848;-70
2022/06/08 01:46:45;;;;;;;0.70;0.70;;;22.50;67.10;;;;;;5089268;28;46084;-68
2022/06/08 01:49:25;;;;;;;0.70;0.70;;;22.60;66.60;;;;;;5071019;28;44945;-69
2022/06/08 01:52:13;;;;;;;0.73;0.73;;;22.80;66.30;;;;;;5089970;27;43947;-68
2022/06/08 01:54:57;;;;;;;0.93;0.93;;;22.90;65.80;;;;;;5071816;28;44306;-68
2022/06/08 01:57:33;;;;;;;0.90;0.90;;;23.00;65.60;;;;;;5102891;27;43989;-69
2022/06/08 02:00:04;;;;;;;0.90;0.90;;;23.00;65.20;;;;;;5071350;27;43366;-68
2022/06/08 02:02:51;;;;;;;0.80;0.80;;;23.00;65.20;;;;;;5086493;27;43813;-68
2022/06/08 02:05:21;;;;;;;0.80;0.80;;;22.80;65.60;;;;;;5090157;27;43981;-68
2022/06/08 02:07:53;;;;;;;0.70;0.70;;;22.60;66.10;;;;;;5071181;28;45805;-68
2022/06/08 02:10:25;;;;;;;0.77;0.77;;;22.40;66.40;;;;;;5071214;28;44028;-68
2022/06/08 02:12:56;;;;;;;0.70;0.70;;;22.20;66.90;;;;;;5071322;28;43901;-69
2022/06/08 02:15:27;;;;;;;0.83;0.83;;;22.10;67.40;;;;;;5071560;28;43956;-69
2022/06/08 02:17:56;;;;;;;0.70;0.70;;;21.90;67.70;;;;;;5070829;28;45648;-68
2022/06/08 02:20:35;;;;;;;0.83;0.83;;;21.80;68.10;;;;;;5075938;27;45088;-69
2022/06/08 02:23:08;;;;;;;0.70;0.70;;;21.70;68.30;;;;;;5071272;27;44025;-68
2022/06/08 02:25:41;;;;;;;1.00;1.00;;;21.70;68.60;;;;;;5071482;27;44004;-68
2022/06/08 02:28:12;;;;;;;0.90;0.90;;;21.60;68.70;;;;;;5070773;27;46034;-70
2022/06/08 02:30:43;;;;;;;0.80;0.80;;;21.60;68.90;;;;;;5070827;27;43905;-69
2022/06/08 02:36:01;;;;;;;0.80;0.80;;;21.50;69.00;;;;;;5062773;28;44219;-69
2022/06/08 02:38:33;;;;;;;0.67;0.67;;;21.50;69.10;;;;;;5089090;27;43965;-68
2022/06/08 02:41:03;;;;;;;0.80;0.80;;;21.50;69.20;;;;;;5088383;27;44052;-68
2022/06/08 02:43:37;;;;;;;0.70;0.70;;;21.50;69.20;;;;;;5070701;27;44020;-68
2022/06/08 02:46:11;;;;;;;0.70;0.70;;;21.50;69.30;;;;;;5071333;27;43901;-70
2022/06/08 02:48:40;;;;;;;0.80;0.80;;;21.50;69.90;;;;;;5070338;27;44083;-69
2022/06/08 02:51:08;;;;;;;0.60;0.60;;;21.50;70.00;;;;;;5079572;27;45011;-68
2022/06/08 02:54:00;;;;;;;0.80;0.80;;;21.60;69.60;;;;;;5090140;27;44004;-69
2022/06/08 02:56:39;;;;;;;0.70;0.70;;;21.80;69.00;;;;;;5090213;27;43845;-68
2022/06/08 02:59:11;;;;;;;0.80;0.80;;;22.00;68.40;;;;;;5090044;27;45526;-68
2022/06/08 03:01:41;;;;;;;0.90;0.90;;;22.20;67.80;;;;;;5089908;27;44367;-68
2022/06/08 03:04:11;;;;;;;0.70;0.70;;;22.40;67.30;;;;;;5090119;27;44104;-68
2022/06/08 03:06:44;;;;;;;1.40;0.60;;;22.60;66.80;;;;;;5090117;27;43845;-68
2022/06/08 03:09:13;;;;;;;0.70;0.70;;;22.70;66.40;;;;;;5089664;27;44076;-68
2022/06/08 03:11:45;;;;;;;1.10;1.10;;;22.80;66.00;;;;;;5089637;27;44479;-68
2022/06/08 03:14:14;;;;;;;0.77;0.77;;;22.90;65.70;;;;;;5089868;27;43984;-69
2022/06/08 03:16:53;;;;;;;0.73;0.73;;;23.00;65.40;;;;;;5089895;27;44232;-69
2022/06/08 03:19:21;;;;;;;0.70;0.70;;;23.00;65.00;;;;;;5089535;27;45435;-68
2022/06/08 03:21:51;;;;;;;1.47;0.90;;;23.00;65.00;;;;;;5089482;27;43948;-69
2022/06/08 03:24:19;;;;;;;0.83;0.83;;;22.90;65.40;;;;;;5089821;27;44002;-69
2022/06/08 03:26:50;;;;;;;0.70;0.70;;;22.70;65.70;;;;;;5071273;27;43953;-69
2022/06/08 03:29:18;;;;;;;0.70;0.70;;;22.50;66.20;;;;;;5069806;28;46955;-68
2022/06/08 03:31:47;;;;;;;0.73;0.73;;;22.30;66.40;;;;;;5075494;27;43512;-68
2022/06/08 03:34:15;;;;;;;0.70;0.70;;;22.10;66.90;;;;;;5070169;28;44000;-69
2022/06/08 03:36:43;;;;;;;0.60;0.60;;;22.00;67.40;;;;;;5079505;28;43467;-69
2022/06/08 03:39:11;;;;;;;0.70;0.70;;;21.90;67.80;;;;;;5069860;28;45301;-68
2022/06/08 03:41:40;;;;;;;0.73;0.73;;;21.80;68.00;;;;;;5069798;28;43967;-68
2022/06/08 03:44:09;;;;;;;0.80;0.80;;;21.70;68.20;;;;;;5070099;28;44036;-69
2022/06/08 03:46:38;;;;;;;0.80;0.80;;;21.70;68.40;;;;;;5088923;27;44017;-70
2022/06/08 03:49:07;;;;;;;0.60;0.60;;;21.60;69.30;;;;;;5087837;27;43988;-69
2022/06/08 03:51:35;;;;;;;0.73;0.73;;;21.60;68.70;;;;;;5088265;27;44025;-69
2022/06/08 03:54:06;;;;;;;0.70;0.70;;;21.60;68.80;;;;;;5076193;27;44071;-68
2022/06/08 03:56:34;;;;;;;0.87;0.87;;;21.50;68.80;;;;;;5088040;27;43904;-68
2022/06/08 03:59:02;;;;;;;0.80;0.80;;;21.50;69.00;;;;;;5087941;28;43952;-69
2022/06/08 04:01:31;;;;;;;0.70;0.70;;;21.50;69.00;;;;;;5087415;28;43973;-68
2022/06/08 04:04:02;;;;;;;0.73;0.73;;;21.50;69.00;;;;;;5069649;28;43968;-68
2022/06/08 04:06:32;;;;;;;0.80;0.80;;;21.50;69.00;;;;;;5074127;28;44150;-68
2022/06/08 04:09:04;;;;;;;0.70;0.70;;;21.50;69.10;;;;;;5080704;27;44059;-69
2022/06/08 04:11:34;;;;;;;0.90;0.90;;;21.50;69.10;;;;;;5069624;27;44732;-69
2022/06/08 04:14:03;;;;;;;0.80;0.80;;;21.50;69.10;;;;;;5087917;27;43550;-68
2022/06/08 04:16:33;;;;;;;0.60;0.60;;;21.50;69.70;;;;;;5071746;27;43995;-69
2022/06/08 04:19:05;;;;;;;0.60;0.60;;;21.50;69.80;;;;;;5089228;27;45737;-69
2022/06/08 04:21:36;;;;;;;0.70;0.70;;;21.70;69.50;;;;;;5088810;27;43962;-69
2022/06/08 04:24:10;;;;;;;0.60;0.60;;;21.80;68.90;;;;;;5107772;27;43977;-68
2022/06/08 04:26:42;;;;;;;0.70;0.70;;;22.10;68.40;;;;;;5071449;28;43918;-68
2022/06/08 04:29:17;;;;;;;0.70;0.70;;;22.20;67.80;;;;;;5069084;28;44020;-68
2022/06/08 04:31:47;;;;;;;0.67;0.67;;;22.40;67.20;;;;;;5069218;28;43413;-68
2022/06/08 04:34:25;;;;;;;0.90;0.90;;;22.60;66.60;;;;;;5069261;27;44012;-68
2022/06/08 04:36:54;;;;;;;0.60;0.60;;;22.70;66.20;;;;;;5083106;27;43985;-68
2022/06/08 04:39:27;;;;;;;0.77;0.77;;;22.80;65.90;;;;;;5088557;27;45302;-68
2022/06/08 04:41:58;;;;;;;0.70;0.70;;;22.90;65.50;;;;;;5106939;27;44052;-69
2022/06/08 04:44:32;;;;;;;0.70;0.70;;;22.90;65.40;;;;;;5088855;27;44022;-68
2022/06/08 04:47:05;;;;;;;0.80;0.80;;;22.80;65.70;;;;;;5088907;27;43419;-69
2022/06/08 04:49:38;;;;;;;0.70;0.70;;;22.60;66.20;;;;;;5084822;28;44050;-68
2022/06/08 04:52:08;;;;;;;0.73;0.73;;;22.40;66.60;;;;;;5073280;27;43886;-69
2022/06/08 04:54:39;;;;;;;0.80;0.80;;;22.20;66.70;;;;;;5088848;27;43922;-68
2022/06/08 04:57:13;;;;;;;0.60;0.60;;;22.10;67.20;;;;;;5070391;28;43376;-68
2022/06/08 04:59:41;;;;;;;0.70;0.70;;;22.00;67.60;;;;;;5068386;28;46433;-68
2022/06/08 05:02:42;;;;;;;0.67;0.67;;;21.90;67.90;;;;;;5068796;28;43984;-68
2022/06/08 05:05:13;;;;;;;0.70;0.70;;;21.80;68.20;;;;;;5078937;27;43964;-68
2022/06/08 05:07:41;;;;;;;0.77;0.77;;;21.70;68.40;;;;;;5107103;27;43380;-69
2022/06/08 05:10:10;;;;;;;0.80;0.80;;;21.60;68.50;;;;;;5088464;27;45354;-68
2022/06/08 05:12:40;;;;;;;0.67;0.67;;;21.60;68.70;;;;;;5088330;27;43971;-68
2022/06/08 05:15:11;;;;;;;0.60;0.60;;;21.60;68.80;;;;;;5071123;28;43917;-69
2022/06/08 05:17:41;;;;;;;0.60;0.60;;;21.50;68.90;;;;;;5105424;27;44404;-68
2022/06/08 05:20:11;;;;;;;0.77;0.77;;;21.50;69.00;;;;;;5087906;27;45752;-68
2022/06/08 05:22:41;;;;;;;0.80;0.80;;;21.50;69.00;;;;;;5088018;27;43920;-69
2022/06/08 05:25:11;;;;;;;0.60;0.60;;;21.50;69.10;;;;;;5076471;28;43956;-68
2022/06/08 05:27:39;;;;;;;0.90;0.90;;;21.50;69.20;;;;;;5068439;28;43472;-67
2022/06/08 05:30:09;;;;;;;0.80;0.80;;;21.50;69.20;;;;;;5068493;28;45679;-69
2022/06/08 05:32:41;;;;;;;0.73;0.73;;;21.50;69.90;;;;;;5088222;27;44026;-70
2022/06/08 05:35:10;;;;;;;0.63;0.63;;;21.50;69.80;;;;;;5085502;28;43853;-68
2022/06/08 05:37:38;;;;;;;0.77;0.77;;;21.60;69.40;;;;;;5078479;28;44068;-69
2022/06/08 05:40:08;;;;;;;0.60;0.60;;;21.80;69.00;;;;;;5068483;28;43964;-68
2022/06/08 05:42:37;;;;;;;0.60;0.60;;;22.00;68.50;;;;;;5068233;28;46024;-68
2022/06/08 05:45:06;;;;;;;0.80;0.80;;;22.20;68.00;;;;;;5068121;28;43984;-69
2022/06/08 05:47:38;;;;;;;0.97;0.97;;;22.40;67.50;;;;;;5082778;27;43965;-69
2022/06/08 05:50:11;;;;;;;0.60;0.60;;;22.50;66.90;;;;;;5106608;27;43750;-68
2022/06/08 05:52:46;;;;;;;0.80;0.80;;;22.70;66.50;;;;;;5087723;27;45511;-68
2022/06/08 05:55:14;;;;;;;0.80;0.80;;;22.70;65.90;;;;;;5090222;27;43923;-69
2022/06/08 05:57:44;;;;;;;0.73;0.73;;;22.80;65.70;;;;;;5091187;27;44046;-69
2022/06/08 06:00:15;;;;;;;0.60;0.60;;;22.90;65.40;;;;;;5091130;27;44019;-68
2022/06/08 06:02:43;;;;;;;0.70;0.70;;;22.90;65.20;;;;;;5109352;27;44029;-68
2022/06/08 06:05:17;;;;;;;0.60;0.60;;;22.90;65.10;;;;;;5090998;27;43540;-68
2022/06/08 06:07:46;;;;;;;0.77;0.77;;;22.80;65.60;;;;;;5105668;27;43808;-69
2022/06/08 06:10:25;;;;;;;0.90;0.90;;;22.60;66.10;;;;;;5077563;27;43843;-69
2022/06/08 06:12:54;;;;;;;0.70;0.70;;;22.40;66.60;;;;;;5091155;27;44797;-68
2022/06/08 06:15:27;;;;;;;0.73;0.73;;;22.20;66.80;;;;;;5090747;27;43881;-68
2022/06/08 06:17:57;;;;;;;0.90;0.90;;;22.00;67.20;;;;;;5090968;27;44258;-68
2022/06/08 06:20:27;;;;;;;0.80;0.80;;;21.90;67.70;;;;;;5090660;27;45767;-68
2022/06/08 06:23:15;;;;;;;0.70;0.70;;;21.80;68.00;;;;;;5080457;28;45941;-68
2022/06/08 06:25:52;;;;;;;0.70;0.70;;;21.70;68.30;;;;;;5082292;27;44099;-68
2022/06/08 06:28:31;;;;;;;0.70;0.70;;;21.60;68.50;;;;;;5090681;27;44059;-68
2022/06/08 06:31:24;;;;;;;0.77;0.77;;;21.50;68.70;;;;;;5109189;27;43978;-69
2022/06/08 06:34:10;;;;;;;0.70;0.70;;;21.50;68.90;;;;;;5090457;27;44054;-68
2022/06/08 06:36:40;;;;;;;0.60;0.60;;;21.50;69.10;;;;;;5090405;27;43959;-68
2022/06/08 06:39:09;;;;;;;0.70;0.70;;;21.40;69.10;;;;;;5077277;27;43614;-68
2022/06/08 06:41:40;;;;;;;0.70;0.70;;;21.40;69.20;;;;;;5084122;28;43885;-69
2022/06/08 06:44:08;;;;;;;0.80;0.80;;;21.40;69.30;;;;;;5084036;27;44668;-68
2022/06/08 06:46:41;;;;;;;1.20;0.70;;;21.40;69.30;;;;;;5071111;27;43822;-68
2022/06/08 06:49:15;;;;;;;0.60;0.60;;;21.40;69.40;;;;;;5070995;27;43524;-69
2022/06/08 06:51:47;;;;;;;0.90;0.90;;;21.40;69.40;;;;;;5070625;27;43935;-68
2022/06/08 06:54:15;;;;;;;0.80;0.80;;;21.30;69.30;;;;;;5096766;27;43971;-69
2022/06/08 06:56:43;;;;;;;0.80;0.80;;;21.30;69.40;;;;;;5090230;27;43537;-69
2022/06/08 06:59:17;;;;;;;0.70;0.70;;;21.30;69.70;;;;;;5074897;27;43975;-68
2022/06/08 07:01:47;;;;;;;0.60;0.60;;;21.40;70.20;;;;;;5070543;27;45414;-68
2022/06/08 07:04:16;;;;;;;0.80;0.80;;;21.50;69.80;;;;;;5070311;27;44767;-67
2022/06/08 07:06:44;;;;;;;1.00;1.00;;;21.70;69.30;;;;;;5070408;27;44025;-68
2022/06/08 07:09:14;;;;;;;0.67;0.67;;;21.90;68.80;;;;;;5080231;27;43964;-69
2022/06/08 07:11:45;;;;;;;0.60;0.60;;;22.10;68.20;;;;;;5083504;27;44041;-68
2022/06/08 07:14:35;;;;;;;0.70;0.70;;;22.30;67.70;;;;;;5090328;27;43944;-68
2022/06/08 07:17:06;;;;;;;0.67;0.67;;;22.50;67.00;;;;;;5081538;27;43928;-68
2022/06/08 07:19:38;;;;;;;0.57;0.57;;;22.60;66.60;;;;;;5076427;27;43709;-69
2022/06/08 07:22:08;;;;;;;0.80;0.80;;;22.70;66.20;;;;;;5070540;27;44057;-68
2022/06/08 07:24:37;;;;;;;0.80;0.80;;;22.80;66.00;;;;;;5103324;27;44155;-68
2022/06/08 07:27:05;;;;;;;0.83;0.83;;;22.80;65.80;;;;;;5108814;27;43916;-69
2022/06/08 07:29:35;;;;;;;0.70;0.70;;;22.70;65.90;;;;;;5108561;27;44015;-68
2022/06/08 07:32:04;;;;;;;0.70;0.70;;;22.50;66.40;;;;;;5099978;27;43837;-68
2022/06/08 07:34:32;;;;;;;0.70;0.70;;;22.30;66.80;;;;;;5070147;27;44327;-68
2022/06/08 07:37:01;;;;;;;0.90;0.90;;;22.10;67.00;;;;;;5069942;27;43917;-68
2022/06/08 07:39:29;;;;;;;0.67;0.67;;;21.90;67.40;;;;;;5088700;27;43459;-69
2022/06/08 07:41:58;;;;;;;0.60;0.60;;;21.80;67.90;;;;;;5088416;27;43944;-68
2022/06/08 07:44:26;;;;;;;0.70;0.70;;;21.70;68.20;;;;;;5088557;27;43777;-68
2022/06/08 07:46:54;;;;;;;0.60;0.60;;;21.60;68.50;;;;;;5070136;27;43984;-68
2022/06/08 07:49:37;;;;;;;0.60;0.60;;;21.50;68.70;;;;;;5088294;27;43928;-68
2022/06/08 07:52:07;;;;;;;0.53;0.53;;;21.50;69.00;;;;;;5088444;27;43999;-68
2022/06/08 07:54:35;;;;;;;0.63;0.63;;;21.40;69.10;;;;;;5088231;27;43936;-69
2022/06/08 07:57:05;;;;;;;0.70;0.70;;;21.40;69.20;;;;;;5092833;27;44113;-68
2022/06/08 07:59:34;;;;;;;0.70;0.70;;;21.40;69.40;;;;;;5108327;27;44016;-69
2022/06/08 08:02:03;;;;;;;0.53;0.53;;;21.30;69.40;;;;;;5107402;27;43782;-69
2022/06/08 08:04:31;;;;;;;0.60;0.60;;;21.30;69.50;;;;;;5095959;27;43934;-69
2022/06/08 08:06:59;;;;;;;0.57;0.57;;;21.30;69.60;;;;;;5088366;27;43949;-69
2022/06/08 08:09:27;;;;;;;0.73;0.73;;;21.30;69.60;;;;;;5088266;27;43956;-69
2022/06/08 08:11:57;;;;;;;0.70;0.70;;;21.30;69.60;;;;;;5088108;27;43814;-68
2022/06/08 08:14:26;;;;;;;0.57;0.57;;;21.30;69.60;;;;;;5100294;27;43890;-69
2022/06/08 08:16:54;;;;;;;0.60;0.60;;;21.30;69.60;;;;;;5101108;27;44439;-69
2022/06/08 08:19:25;;;;;;;0.80;0.80;;;21.30;69.60;;;;;;5088410;27;43975;-70
2022/06/08 08:21:53;;;;;;;0.63;0.63;;;21.30;70.30;;;;;;5087859;27;43958;-69
2022/06/08 08:24:22;;;;;;;0.70;0.70;;;21.40;70.20;;;;;;5069134;28;46393;-70
2022/06/08 08:26:51;;;;;;;0.70;0.70;;;21.50;69.80;;;;;;5101024;27;43401;-68
2022/06/08 08:29:19;;;;;;;0.60;0.60;;;21.70;69.10;;;;;;5088320;27;43919;-68
2022/06/08 08:31:49;;;;;;;0.80;0.80;;;21.90;68.60;;;;;;5094356;27;43952;-69
2022/06/08 08:34:18;;;;;;;0.73;0.73;;;22.10;67.90;;;;;;5069207;27;46059;-69
2022/06/08 08:36:46;;;;;;;0.67;0.67;;;22.30;67.40;;;;;;5087636;27;43952;-69
2022/06/08 08:39:15;;;;;;;0.80;0.80;;;22.40;66.90;;;;;;5087900;27;44052;-68
2022/06/08 08:44:36;;;;;;;0.70;0.70;;;22.70;66.20;;;;;;5075820;28;44369;-69
2022/06/08 08:47:12;;;;;;;0.60;0.60;;;22.80;65.90;;;;;;5087704;27;44016;-69
2022/06/08 08:49:42;;;;;;;0.70;0.70;;;22.80;65.60;;;;;;5076047;28;44066;-69
2022/06/08 08:52:17;;;;;;;0.87;0.87;;;22.80;65.70;;;;;;5068936;28;45709;-68
2022/06/08 08:54:50;;;;;;;0.70;0.70;;;22.60;65.90;;;;;;5100980;27;43365;-69
2022/06/08 08:57:23;;;;;;;0.60;0.60;;;22.40;66.50;;;;;;5087372;27;43379;-68
2022/06/08 08:59:51;;;;;;;0.50;0.50;;;22.20;66.80;;;;;;5069107;27;44104;-68
2022/06/08 09:05:10;;;;;;;0.60;0.60;;;21.80;67.70;;;;;;5096166;27;44004;-68
2022/06/08 09:07:38;;;;;;;0.90;0.90;;;21.70;68.20;;;;;;5107383;27;43873;-68
2022/06/08 09:10:08;;;;;;;0.70;0.70;;;21.60;68.60;;;;;;5107171;27;43537;-68
2022/06/08 09:12:37;;;;;;;0.70;0.70;;;21.50;68.80;;;;;;5100456;27;44007;-69
2022/06/08 09:15:06;;;;;;;0.60;0.60;;;21.50;69.00;;;;;;5088498;27;44801;-68
2022/06/08 09:17:37;;;;;;;0.60;0.60;;;21.40;69.10;;;;;;5102494;27;44090;-68
2022/06/08 09:20:22;;;;;;;0.60;0.60;;;21.40;69.30;;;;;;5101112;27;43960;-69
2022/06/08 09:22:53;;;;;;;0.63;0.63;;;21.30;69.40;;;;;;5094460;27;43828;-69
2022/06/08 09:25:26;;;;;;;0.60;0.60;;;21.30;69.40;;;;;;5105164;27;43927;-69
2022/06/08 09:27:55;;;;;;;0.70;0.70;;;21.30;69.50;;;;;;5087401;27;43809;-68
2022/06/08 09:30:24;;;;;;;0.53;0.53;;;21.30;69.50;;;;;;5072181;27;43950;-68
2022/06/08 09:32:59;;;;;;;0.70;0.70;;;21.30;69.60;;;;;;5071756;27;45911;-69
2022/06/08 09:35:30;;;;;;;0.67;0.67;;;21.30;69.60;;;;;;5090284;27;43841;-68
2022/06/08 09:38:00;;;;;;;0.70;0.70;;;21.30;69.60;;;;;;5090581;27;43994;-68
2022/06/08 09:40:40;;;;;;;0.60;0.60;;;21.20;69.50;;;;;;5090792;27;43928;-68
2022/06/08 09:43:32;;;;;;;0.67;0.67;;;21.20;69.50;;;;;;5090536;27;44981;-68
2022/06/08 09:46:03;;;;;;;0.60;0.60;;;21.20;69.70;;;;;;5086110;27;43962;-68
2022/06/08 09:51:51;;;;;;;0.40;0.40;;;21.40;70.00;;;;;;5090512;27;44034;-69
2022/06/08 09:54:23;;;;;;;0.50;0.50;;;21.70;69.30;;;;;;5096837;27;44102;-68
2022/06/08 09:57:02;;;;;;;0.70;0.70;;;21.90;68.90;;;;;;5080765;28;44759;-68
2022/06/08 09:59:39;;;;;;;0.70;0.70;;;22.00;68.20;;;;;;5090229;27;43332;-68
2022/06/08 10:02:16;;;;;;;0.70;0.70;;;22.20;67.60;;;;;;5097069;27;43998;-69
2022/06/08 10:04:53;;;;;;;0.50;0.50;;;22.40;67.10;;;;;;5088205;27;45703;-68
2022/06/08 10:07:24;;;;;;;0.60;0.60;;;22.50;66.70;;;;;;5089879;27;43994;-68
2022/06/08 10:10:03;;;;;;;0.53;0.53;;;22.60;66.30;;;;;;5090332;27;44047;-68
2022/06/08 10:12:36;;;;;;;0.50;0.50;;;22.70;66.00;;;;;;5089881;27;44043;-69
2022/06/08 10:15:09;;;;;;;0.73;0.73;;;22.70;65.70;;;;;;5107727;27;44722;-69
2022/06/08 10:17:42;;;;;;;0.60;0.60;;;22.70;65.60;;;;;;5109556;27;43449;-68
2022/06/08 10:20:14;;;;;;;0.50;0.50;;;22.60;66.00;;;;;;5110001;27;43957;-68
2022/06/08 10:22:44;;;;;;;0.50;0.50;;;22.50;66.40;;;;;;5090038;27;44030;-68
2022/06/08 10:25:17;;;;;;;0.70;0.70;;;22.20;66.70;;;;;;5089559;27;44860;-68
2022/06/08 10:27:48;;;;;;;0.60;0.60;;;22.10;67.10;;;;;;5077294;27;44017;-68
2022/06/08 10:30:19;;;;;;;0.50;0.50;;;21.90;67.50;;;;;;5109266;27;43436;-69
2022/06/08 10:32:50;;;;;;;0.60;0.60;;;21.80;68.00;;;;;;5076240;27;43975;-69
2022/06/08 10:35:26;;;;;;;0.50;0.50;;;21.70;68.20;;;;;;5086423;27;45701;-68
2022/06/08 10:37:55;;;;;;;0.60;0.60;;;21.60;68.50;;;;;;5090362;27;46137;-68
2022/06/08 10:40:24;;;;;;;0.57;0.57;;;21.50;69.50;;;;;;5108359;27;43749;-68
2022/06/08 10:42:52;;;;;;;0.63;0.63;;;21.50;69.00;;;;;;5090841;27;43448;-68
2022/06/08 10:45:31;;;;;;;0.47;0.47;;;21.40;69.00;;;;;;5108870;27;43759;-69
2022/06/08 10:48:19;;;;;;;0.60;0.60;;;21.40;69.30;;;;;;5089921;27;44853;-68
2022/06/08 10:51:04;;;;;;;0.50;0.50;;;21.40;69.40;;;;;;5094759;27;43968;-69
2022/06/08 10:56:55;;;;;;;0.60;0.60;;;21.30;69.50;;;;;;5088767;27;44001;-68
2022/06/08 10:59:27;;;;;;;0.50;0.50;;;21.30;69.60;;;;;;5088926;27;43947;-68
2022/06/08 11:02:00;;;;;;;0.50;0.50;;;21.30;69.60;;;;;;5089280;27;43359;-69
2022/06/08 11:04:40;;;;;;;0.53;0.53;;;21.30;69.60;;;;;;5089723;27;43421;-68
2022/06/08 11:07:10;;;;;;;0.53;0.53;;;21.30;69.60;;;;;;5070776;27;45435;-68
2022/06/08 11:10:03;;;;;;;0.60;0.60;;;21.30;69.60;;;;;;5070446;27;43521;-68
2022/06/08 11:12:59;;;;;;;0.50;0.50;;;21.30;69.70;;;;;;5083670;27;44012;-68
2022/06/08 11:15:39;;;;;;;0.73;0.73;;;21.30;70.30;;;;;;5089310;27;43932;-69
2022/06/08 11:18:17;;;;;;;0.40;0.40;;;21.50;70.00;;;;;;5070173;28;46016;-68
2022/06/08 11:20:47;;;;;;;0.50;0.50;;;21.60;69.30;;;;;;5088639;27;43948;-69
2022/06/08 11:23:19;;;;;;;0.70;0.70;;;21.80;69.70;;;;;;5070383;28;43397;-69
2022/06/08 11:25:50;;;;;;;0.70;0.70;;;22.00;68.30;;;;;;5089337;27;43983;-68
2022/06/08 11:28:35;;;;;;;0.60;0.60;;;22.20;67.90;;;;;;5069982;28;46142;-68
2022/06/08 11:31:06;;;;;;;0.40;0.40;;;22.30;67.30;;;;;;5070071;27;44644;-68
2022/06/08 11:34:13;;;;;;;0.57;0.57;;;22.50;66.90;;;;;;5088855;27;43976;-69
2022/06/08 11:36:54;;;;;;;0.60;0.60;;;22.60;66.50;;;;;;5063722;27;43445;-68
2022/06/08 11:39:27;;;;;;;0.60;0.60;;;22.70;66.20;;;;;;5074079;28;45557;-69
2022/06/08 11:42:01;;;;;;;0.60;0.60;;;22.70;66.00;;;;;;5069677;28;45201;-68
2022/06/08 11:44:34;;;;;;;7.00;1.40;;;22.60;66.20;;;;;;5088247;28;43370;-69
2022/06/08 11:47:16;;;;;;;11.93;1.10;;;22.40;65.80;;;;;;5088504;28;43940;-68
2022/06/08 11:49:46;;;;;;;1.13;0.80;;;22.20;66.60;;;;;;5087878;28;43961;-69
2022/06/08 11:52:27;;;;;;;1.03;0.60;;;22.00;67.30;;;;;;5085285;28;43379;-68
2022/06/08 11:55:09;;;;;;;1.60;0.67;;;21.80;67.70;;;;;;5088683;27;43997;-69
2022/06/08 11:57:38;;;;;;;0.73;0.73;;;21.70;68.20;;;;;;5070143;27;43595;-69
2022/06/08 12:00:15;;;;;;;3.03;0.70;;;21.60;68.50;;;;;;5095082;27;43904;-68
2022/06/08 12:02:50;;;;;;;0.60;0.60;;;21.50;68.80;;;;;;5092691;27;43937;-68
2022/06/08 12:05:23;;;;;;;1.90;0.63;;;21.40;69.00;;;;;;5089215;27;44200;-69
2022/06/08 12:07:59;;;;;;;0.63;0.63;;;21.40;69.20;;;;;;5089532;27;43926;-68
2022/06/08 12:10:29;;;;;;;0.70;0.70;;;21.40;69.40;;;;;;5107759;27;44806;-69
2022/06/08 12:12:58;;;;;;;0.73;0.60;;;21.30;69.50;;;;;;5093146;27;44000;-69
2022/06/08 12:15:38;;;;;;;0.70;0.70;;;21.30;69.60;;;;;;5087983;27;43948;-68
2022/06/08 12:18:11;;;;;;;0.70;0.70;;;21.30;70.60;;;;;;5088533;27;43982;-68
2022/06/08 12:20:40;;;;;;;0.70;0.70;;;21.40;70.40;;;;;;5087982;27;43992;-68
2022/06/08 12:23:08;;;;;;;0.63;0.63;;;21.60;69.90;;;;;;5098168;27;43932;-68
2022/06/08 12:25:38;;;;;;;0.70;0.70;;;21.80;69.10;;;;;;5107595;27;43411;-68
2022/06/08 12:28:16;;;;;;;0.40;0.40;;;22.10;68.50;;;;;;5108307;27;43901;-69
2022/06/08 12:30:54;;;;;;;0.67;0.67;;;22.30;67.70;;;;;;5107270;27;43891;-69
2022/06/08 12:33:30;;;;;;;0.70;0.70;;;22.50;67.20;;;;;;5087101;28;43378;-69
2022/06/08 12:36:00;;;;;;;0.50;0.50;;;22.60;66.70;;;;;;5087262;28;43966;-68
2022/06/08 12:38:28;;;;;;;0.70;0.70;;;22.80;66.30;;;;;;5087566;28;43951;-69
2022/06/08 12:41:11;;;;;;;0.47;0.47;;;22.90;65.90;;;;;;5087253;28;44035;-69
2022/06/08 12:43:46;;;;;;;1.17;0.70;;;23.00;65.60;;;;;;5069174;28;45111;-68
2022/06/08 12:46:28;;;;;;;1.13;0.63;;;23.00;65.20;;;;;;5087295;28;43921;-69
2022/06/08 12:48:59;;;;;;;0.60;0.60;;;23.10;64.90;;;;;;5087384;28;43328;-69
2022/06/08 12:51:40;;;;;;;0.47;0.47;;;23.20;64.70;;;;;;5094131;27;43957;-68
2022/06/08 12:54:15;;;;;;;0.50;0.50;;;23.20;64.50;;;;;;5088412;27;44244;-69
2022/06/08 12:56:45;;;;;;;0.80;0.80;;;23.20;64.20;;;;;;5106826;27;44139;-69
2022/06/08 12:59:13;;;;;;;0.50;0.50;;;23.20;64.30;;;;;;5107526;27;43712;-69
2022/06/08 13:01:44;;;;;;;0.40;0.40;;;23.20;64.20;;;;;;5106853;27;43955;-68
2022/06/08 13:04:14;;;;;;;0.60;0.60;;;23.20;64.40;;;;;;5108775;27;43970;-70
2022/06/08 13:06:42;;;;;;;0.60;0.60;;;23.00;64.60;;;;;;5110550;27;43919;-68
2022/06/08 13:09:14;;;;;;;1.37;0.63;;;22.90;65.30;;;;;;5111168;27;43971;-68
2022/06/08 13:11:44;;;;;;;0.60;0.60;;;22.70;66.10;;;;;;5110248;27;43953;-68
2022/06/08 13:14:15;;;;;;;0.50;0.50;;;22.40;66.30;;;;;;5110278;27;44006;-69
2022/06/08 13:16:44;;;;;;;0.83;0.80;;;22.20;66.90;;;;;;5110381;27;43996;-69
2022/06/08 13:19:13;;;;;;;0.50;0.50;;;22.00;67.40;;;;;;5092012;27;43917;-68
2022/06/08 13:21:41;;;;;;;0.80;0.80;;;21.90;67.90;;;;;;5098272;27;44002;-68
2022/06/08 13:24:10;;;;;;;0.67;0.67;;;21.70;68.80;;;;;;5090791;27;43974;-69
2022/06/08 13:26:39;;;;;;;0.50;0.50;;;21.60;68.50;;;;;;5090778;27;43819;-68
2022/06/08 13:29:09;;;;;;;0.67;0.67;;;21.60;68.80;;;;;;5090621;27;44065;-69